createdAt,value
2019-04-07T00:02:02.784Z,99635.72
2019-04-07T00:04:33.018Z,99664.17
2019-04-07T00:07:03.842Z,99663.77
2019-04-07T00:09:33.563Z,99660.02
2019-04-07T00:12:02.892Z,99666.73
2019-04-07T00:14:32.926Z,99669.53
2019-04-07T00:17:02.588Z,99663.36
2019-04-07T00:19:32.335Z,99663.36
2019-04-07T00:22:01.643Z,99668.59
2019-04-07T00:24:31.234Z,99660.92
2019-04-07T00:27:01.402Z,99663.28
2019-04-07T00:29:30.833Z,99665.16
2019-04-07T00:32:00.326Z,99664.73
2019-04-07T00:34:29.868Z,99660.72
2019-04-07T00:36:59.946Z,99662.16
2019-04-07T00:39:29.635Z,99659.38
2019-04-07T00:41:59.206Z,99655.61
2019-04-07T00:44:29.163Z,99654.30
2019-04-07T00:46:58.914Z,99654.35
2019-04-07T00:49:29.048Z,99654.55
2019-04-07T00:52:00.654Z,99658.19
2019-04-07T00:54:30.565Z,99660.83
2019-04-07T00:57:00.145Z,99655.75
2019-04-07T00:59:29.721Z,99661.78
2019-04-07T01:01:59.227Z,99654.14
2019-04-07T01:04:29.184Z,99656.22
2019-04-07T01:06:59.154Z,99657.00
2019-04-07T01:09:28.877Z,99654.54
2019-04-07T01:11:58.625Z,99656.33
2019-04-07T01:14:28.170Z,99660.19
2019-04-07T01:16:58.306Z,99656.64
2019-04-07T01:19:28.153Z,99659.09
2019-04-07T01:21:57.551Z,99658.50
2019-04-07T01:24:27.709Z,99653.56
2019-04-07T01:26:57.402Z,99653.19
2019-04-07T01:29:26.793Z,99650.05
2019-04-07T01:31:56.250Z,99657.04
2019-04-07T01:34:26.176Z,99659.81
2019-04-07T01:36:56.788Z,99659.68
2019-04-07T01:39:26.435Z,99662.05
2019-04-07T01:42:00.074Z,99660.95
2019-04-07T01:44:47.436Z,99662.45
2019-04-07T01:47:21.693Z,99659.66
2019-04-07T01:49:52.797Z,99650.14
2019-04-07T01:52:24.046Z,99649.77
2019-04-07T01:54:55.012Z,99648.55
2019-04-07T01:57:35.485Z,99645.98
2019-04-07T02:00:09.543Z,99645.55
2019-04-07T02:02:41.331Z,99645.55
2019-04-07T02:05:18.744Z,99653.59
2019-04-07T02:07:50.068Z,99653.59
2019-04-07T02:10:21.445Z,99641.85
2019-04-07T02:12:53.172Z,99647.98
2019-04-07T02:15:36.290Z,99646.61
2019-04-07T02:18:10.302Z,99646.50
2019-04-07T02:20:59.673Z,99653.17
2019-04-07T02:23:43.665Z,99648.11
2019-04-07T02:26:14.741Z,99643.58
2019-04-07T02:28:49.559Z,99643.70
2019-04-07T02:31:38.202Z,99647.58
2019-04-07T02:34:09.540Z,99646.47
2019-04-07T02:36:56.062Z,99646.47
2019-04-07T02:39:34.699Z,99649.77
2019-04-07T02:42:05.937Z,99655.52
2019-04-07T02:44:48.282Z,99655.52
2019-04-07T02:47:20.200Z,99654.14
2019-04-07T02:49:54.790Z,99654.14
2019-04-07T02:52:30.305Z,99658.81
2019-04-07T02:55:14.329Z,99658.81
2019-04-07T02:57:54.224Z,99659.20
2019-04-07T03:00:37.997Z,99656.06
2019-04-07T03:03:27.099Z,99662.52
2019-04-07T03:06:01.955Z,99664.05
2019-04-07T03:08:50.627Z,99664.05
2019-04-07T03:11:22.506Z,99667.02
2019-04-07T03:13:54.386Z,99669.95
2019-04-07T03:16:25.522Z,99667.02
2019-04-07T03:19:11.757Z,99667.02
2019-04-07T03:21:48.557Z,99660.56
2019-04-07T03:24:19.587Z,99661.88
2019-04-07T03:27:08.037Z,99668.34
2019-04-07T03:29:56.684Z,99668.34
2019-04-07T03:32:33.727Z,99672.37
2019-04-07T03:35:07.386Z,99686.91
2019-04-07T03:37:47.230Z,99675.77
2019-04-07T03:40:33.473Z,99675.77
2019-04-07T03:43:07.509Z,99679.09
2019-04-07T03:45:53.921Z,99680.48
2019-04-07T03:48:35.347Z,99678.83
2019-04-07T03:51:22.968Z,99674.58
2019-04-07T03:54:00.809Z,99674.58
2019-04-07T03:56:48.892Z,99691.44
2019-04-07T03:59:21.486Z,99691.44
2019-04-07T04:01:55.583Z,99683.46
2019-04-07T04:04:27.474Z,99683.46
2019-04-07T04:07:17.803Z,99692.80
2019-04-07T04:09:47.558Z,99690.47
2019-04-07T04:12:27.885Z,99690.47
2019-04-07T04:15:00.103Z,99692.25
2019-04-07T04:17:30.677Z,99689.77
2019-04-07T04:20:00.460Z,99693.43
2019-04-07T04:22:30.800Z,99693.43
2019-04-07T04:25:00.948Z,99696.91
2019-04-07T04:27:31.277Z,99696.91
2019-04-07T04:30:01.112Z,99693.02
2019-04-07T04:32:30.938Z,99700.84
2019-04-07T04:35:01.024Z,99700.84
2019-04-07T04:37:41.225Z,99696.77
2019-04-07T04:40:02.147Z,99699.67
2019-04-07T04:42:31.470Z,99704.51
2019-04-07T04:45:02.225Z,99704.51
2019-04-07T04:47:31.819Z,99700.38
2019-04-07T04:50:02.234Z,99691.98
2019-04-07T04:52:31.900Z,99697.47
2019-04-07T04:55:02.031Z,99700.58
2019-04-07T04:57:32.092Z,99706.83
2019-04-07T05:00:02.180Z,99715.20
2019-04-07T05:02:32.587Z,99715.06
2019-04-07T05:05:02.639Z,99720.94
2019-04-07T05:07:32.421Z,99720.94
2019-04-07T05:10:01.908Z,99722.12
2019-04-07T05:12:31.513Z,99712.48
2019-04-07T05:15:01.613Z,99720.69
2019-04-07T05:17:32.364Z,99720.69
2019-04-07T05:20:02.566Z,99725.19
2019-04-07T05:22:32.131Z,99724.84
2019-04-07T05:25:02.257Z,99730.45
2019-04-07T05:27:32.727Z,99730.45
2019-04-07T05:30:02.478Z,99723.52
2019-04-07T05:32:32.175Z,99723.52
2019-04-07T05:35:02.363Z,99734.91
2019-04-07T05:37:32.045Z,99737.81
2019-04-07T05:40:03.520Z,99733.09
2019-04-07T05:42:32.849Z,99733.09
2019-04-07T05:45:02.618Z,99731.47
2019-04-07T05:47:31.910Z,99741.37
2019-04-07T05:50:03.284Z,99746.06
2019-04-07T05:52:37.849Z,99746.39
2019-04-07T05:55:04.896Z,99746.96
2019-04-07T05:57:35.888Z,99743.83
2019-04-07T06:00:11.137Z,99748.47
2019-04-07T06:02:40.675Z,99747.51
2019-04-07T06:05:11.053Z,99743.01
2019-04-07T06:07:41.489Z,99751.27
2019-04-07T06:10:12.021Z,99750.56
2019-04-07T06:12:44.930Z,99752.52
2019-04-07T06:15:17.657Z,99748.27
2019-04-07T06:17:44.592Z,99743.95
2019-04-07T06:20:15.920Z,99752.52
2019-04-07T06:22:46.837Z,99742.62
2019-04-07T06:25:16.619Z,99751.26
2019-04-07T06:27:46.726Z,99753.83
2019-04-07T06:30:17.881Z,99751.63
2019-04-07T06:32:47.928Z,99747.27
2019-04-07T06:35:17.226Z,99747.23
2019-04-07T06:37:46.559Z,99745.54
2019-04-07T06:40:20.410Z,99748.55
2019-04-07T06:42:47.663Z,99743.02
2019-04-07T06:45:21.831Z,99746.45
2019-04-07T06:47:55.199Z,99743.47
2019-04-07T06:50:45.511Z,99744.78
2019-04-07T06:53:15.750Z,99740.88
2019-04-07T06:55:53.995Z,99742.92
2019-04-07T06:58:27.842Z,99744.64
2019-04-07T07:01:16.975Z,99744.34
2019-04-07T07:04:08.592Z,99745.58
2019-04-07T07:06:37.349Z,99741.64
2019-04-07T07:09:16.587Z,99737.91
2019-04-07T07:11:48.521Z,99740.13
2019-04-07T07:14:32.903Z,99745.13
2019-04-07T07:17:09.073Z,99746.07
2019-04-07T07:19:46.356Z,99749.50
2019-04-07T07:22:17.783Z,99749.67
2019-04-07T07:24:48.145Z,99750.14
2019-04-07T07:27:17.635Z,99748.13
2019-04-07T07:29:47.705Z,99741.78
2019-04-07T07:32:18.530Z,99742.69
2019-04-07T07:34:47.956Z,99742.48
2019-04-07T07:37:17.360Z,99743.22
2019-04-07T07:39:47.107Z,99740.14
2019-04-07T07:42:19.081Z,99737.33
2019-04-07T07:44:48.399Z,99738.53
2019-04-07T07:47:20.880Z,99741.58
2019-04-07T07:49:49.830Z,99737.02
2019-04-07T07:52:21.583Z,99746.53
2019-04-07T07:54:50.837Z,99739.94
2019-04-07T07:57:23.448Z,99739.32
2019-04-07T07:59:52.065Z,99737.03
2019-04-07T08:02:21.986Z,99728.81
2019-04-07T08:04:52.756Z,99744.41
2019-04-07T08:07:22.650Z,99733.08
2019-04-07T08:09:54.370Z,99733.77
2019-04-07T08:12:23.801Z,99731.35
2019-04-07T08:14:56.165Z,99733.02
2019-04-07T08:17:24.828Z,99730.16
2019-04-07T08:19:54.406Z,99727.13
2019-04-07T08:22:30.374Z,99733.77
2019-04-07T08:24:55.567Z,99731.59
2019-04-07T08:27:29.223Z,99724.08
2019-04-07T08:29:57.194Z,99727.77
2019-04-07T08:32:30.843Z,99726.84
2019-04-07T08:35:02.662Z,99724.09
2019-04-07T08:37:29.630Z,99719.27
2019-04-07T08:39:59.480Z,99724.22
2019-04-07T08:42:28.897Z,99727.64
2019-04-07T08:45:00.346Z,99720.91
2019-04-07T08:47:30.176Z,99723.91
2019-04-07T08:49:59.779Z,99724.83
2019-04-07T08:52:29.354Z,99730.11
2019-04-07T08:54:58.934Z,99726.69
2019-04-07T08:57:30.566Z,99730.19
2019-04-07T09:00:00.113Z,99726.83
2019-04-07T09:02:31.116Z,99719.20
2019-04-07T09:05:01.299Z,99720.33
2019-04-07T09:07:33.066Z,99723.89
2019-04-07T09:10:01.934Z,99719.81
2019-04-07T09:12:32.220Z,99727.48
2019-04-07T09:15:04.338Z,99728.15
2019-04-07T09:17:40.458Z,99727.55
2019-04-07T09:20:10.435Z,99732.73
2019-04-07T09:22:40.941Z,99736.25
2019-04-07T09:25:18.327Z,99732.58
2019-04-07T09:27:52.353Z,99732.66
2019-04-07T09:30:23.931Z,99730.16
2019-04-07T09:33:11.396Z,99725.53
2019-04-07T09:35:59.240Z,99733.09
2019-04-07T09:38:42.164Z,99737.42
2019-04-07T09:41:29.739Z,99738.66
2019-04-07T09:44:17.324Z,99734.94
2019-04-07T09:46:57.612Z,99735.34
2019-04-07T09:49:48.194Z,99737.72
2019-04-07T09:52:26.557Z,99731.06
2019-04-07T09:54:57.534Z,99730.56
2019-04-07T09:57:31.518Z,99728.97
2019-04-07T10:00:22.842Z,99726.93
2019-04-07T10:02:56.112Z,99727.92
2019-04-07T10:05:36.302Z,99732.92
2019-04-07T10:08:12.504Z,99729.64
2019-04-07T10:10:52.598Z,99735.65
2019-04-07T10:13:24.128Z,99720.28
2019-04-07T10:16:02.332Z,99727.59
2019-04-07T10:18:52.164Z,99725.72
2019-04-07T10:21:41.766Z,99723.64
2019-04-07T10:24:15.418Z,99728.15
2019-04-07T10:27:02.455Z,99717.70
2019-04-07T10:29:34.086Z,99722.12
2019-04-07T10:32:23.828Z,99716.96
2019-04-07T10:34:57.534Z,99726.08
2019-04-07T10:37:28.773Z,99720.41
2019-04-07T10:40:19.725Z,99719.25
2019-04-07T10:43:04.191Z,99724.09
2019-04-07T10:45:35.411Z,99719.81
2019-04-07T10:48:06.986Z,99711.42
2019-04-07T10:50:43.866Z,99706.11
2019-04-07T10:53:31.287Z,99711.39
2019-04-07T10:56:08.969Z,99708.38
2019-04-07T10:58:56.628Z,99692.16
2019-04-07T11:01:28.515Z,99705.64
2019-04-07T11:04:08.206Z,99710.73
2019-04-07T11:06:39.493Z,99702.47
2019-04-07T11:09:28.326Z,99705.72
2019-04-07T11:12:05.059Z,99711.36
2019-04-07T11:14:51.242Z,99702.27
2019-04-07T11:17:38.308Z,99701.09
2019-04-07T11:20:28.020Z,99685.13
2019-04-07T11:23:11.915Z,99695.94
2019-04-07T11:25:47.839Z,99700.38
2019-04-07T11:28:28.709Z,99691.11
2019-04-07T11:31:13.554Z,99702.38
2019-04-07T11:34:02.270Z,99695.68
2019-04-07T11:36:51.723Z,99700.45
2019-04-07T11:39:27.408Z,99703.64
2019-04-07T11:42:00.986Z,99684.70
2019-04-07T11:44:34.007Z,99682.78
2019-04-07T11:47:18.585Z,99693.94
2019-04-07T11:50:06.774Z,99689.60
2019-04-07T11:52:41.835Z,99689.02
2019-04-07T11:55:17.370Z,99687.39
2019-04-07T11:58:06.573Z,99688.81
2019-04-07T12:00:28.170Z,99685.59
2019-04-07T12:03:03.957Z,99683.45
2019-04-07T12:05:37.845Z,99686.42
2019-04-07T12:08:12.025Z,99689.82
2019-04-07T12:11:02.823Z,99692.84
2019-04-07T12:13:44.137Z,99697.48
2019-04-07T12:16:14.547Z,99696.91
2019-04-07T12:18:50.121Z,99692.11
2019-04-07T12:21:27.861Z,99691.51
2019-04-07T12:24:09.574Z,99692.67
2019-04-07T12:26:43.786Z,99698.66
2019-04-07T12:29:31.035Z,99702.09
2019-04-07T12:32:08.564Z,99701.05
2019-04-07T12:34:47.948Z,99705.48
2019-04-07T12:37:38.041Z,99695.46
2019-04-07T12:40:09.345Z,99702.91
2019-04-07T12:42:47.023Z,99696.94
2019-04-07T12:45:21.051Z,99704.99
2019-04-07T12:47:52.805Z,99695.95
2019-04-07T12:50:30.483Z,99694.56
2019-04-07T12:53:13.580Z,99690.11
2019-04-07T12:55:56.940Z,99693.00
2019-04-07T12:58:36.811Z,99693.98
2019-04-07T13:01:18.720Z,99695.29
2019-04-07T13:03:55.779Z,99696.33
2019-04-07T13:06:33.363Z,99690.88
2019-04-07T13:09:08.188Z,99689.14
2019-04-07T13:11:45.814Z,99690.42
2019-04-07T13:14:35.279Z,99684.92
2019-04-07T13:17:18.241Z,99679.03
2019-04-07T13:19:58.821Z,99679.14
2019-04-07T13:22:46.229Z,99688.31
2019-04-07T13:25:24.343Z,99692.35
2019-04-07T13:28:08.278Z,99689.06
2019-04-07T13:30:54.913Z,99684.11
2019-04-07T13:33:38.111Z,99684.22
2019-04-07T13:36:10.367Z,99680.66
2019-04-07T13:38:44.650Z,99690.73
2019-04-07T13:41:41.591Z,99683.19
2019-04-07T13:44:07.662Z,99675.40
2019-04-07T13:46:54.275Z,99681.56
2019-04-07T13:49:28.931Z,99689.14
2019-04-07T13:52:00.488Z,99691.08
2019-04-07T13:54:38.326Z,99687.84
2019-04-07T13:57:10.165Z,99683.81
2019-04-07T13:59:50.369Z,99682.94
2019-04-07T14:02:24.780Z,99680.87
2019-04-07T14:05:05.157Z,99690.17
2019-04-07T14:07:45.039Z,99683.24
2019-04-07T14:10:28.650Z,99679.86
2019-04-07T14:13:17.613Z,99682.12
2019-04-07T14:16:07.381Z,99683.28
2019-04-07T14:18:55.860Z,99687.86
2019-04-07T14:21:27.511Z,99679.72
2019-04-07T14:24:14.775Z,99686.03
2019-04-07T14:26:46.731Z,99688.34
2019-04-07T14:29:24.238Z,99686.10
2019-04-07T14:31:55.578Z,99679.88
2019-04-07T14:34:29.397Z,99678.81
2019-04-07T14:37:09.761Z,99682.05
2019-04-07T14:39:47.682Z,99686.11
2019-04-07T14:42:21.251Z,99683.72
2019-04-07T14:44:55.575Z,99674.55
2019-04-07T14:47:41.526Z,99674.33
2019-04-07T14:50:13.519Z,99668.65
2019-04-07T14:52:50.158Z,99672.89
2019-04-07T14:55:31.577Z,99671.85
2019-04-07T14:58:20.134Z,99666.25
2019-04-07T15:01:08.407Z,99673.78
2019-04-07T15:03:38.087Z,99666.17
2019-04-07T15:06:07.628Z,99670.11
2019-04-07T15:08:47.621Z,99666.76
2019-04-07T15:11:24.952Z,99671.20
2019-04-07T15:13:57.224Z,99671.92
2019-04-07T15:16:26.356Z,99680.01
2019-04-07T15:18:56.604Z,99689.00
2019-04-07T15:21:26.179Z,99683.06
2019-04-07T15:23:56.178Z,99681.90
2019-04-07T15:26:25.768Z,99685.56
2019-04-07T15:28:57.167Z,99682.19
2019-04-07T15:31:26.435Z,99673.71
2019-04-07T15:33:56.350Z,99677.89
2019-04-07T15:36:26.432Z,99682.30
2019-04-07T15:38:57.294Z,99677.59
2019-04-07T15:41:27.568Z,99685.61
2019-04-07T15:43:57.317Z,99685.05
2019-04-07T15:46:26.896Z,99680.48
2019-04-07T15:48:57.011Z,99678.88
2019-04-07T15:51:26.728Z,99684.37
2019-04-07T15:53:56.566Z,99686.25
2019-04-07T15:56:27.091Z,99688.53
2019-04-07T15:59:00.079Z,99691.52
2019-04-07T16:01:28.029Z,99692.61
2019-04-07T16:03:57.687Z,99694.63
2019-04-07T16:06:27.932Z,99695.30
2019-04-07T16:08:59.963Z,99697.66
2019-04-07T16:11:30.466Z,99709.64
2019-04-07T16:13:59.712Z,99703.64
2019-04-07T16:16:29.703Z,99701.57
2019-04-07T16:18:59.368Z,99699.64
2019-04-07T16:21:29.795Z,99706.73
2019-04-07T16:23:59.512Z,99708.97
2019-04-07T16:26:31.210Z,99710.98
2019-04-07T16:28:59.918Z,99712.33
2019-04-07T16:31:30.051Z,99715.22
2019-04-07T16:34:00.290Z,99716.78
2019-04-07T16:36:30.242Z,99719.16
2019-04-07T16:39:01.946Z,99725.20
2019-04-07T16:41:31.583Z,99721.61
2019-04-07T16:44:03.521Z,99723.80
2019-04-07T16:46:32.173Z,99723.67
2019-04-07T16:49:01.802Z,99727.55
2019-04-07T16:51:33.635Z,99730.69
2019-04-07T16:54:02.741Z,99735.61
2019-04-07T16:56:32.654Z,99740.96
2019-04-07T16:59:02.638Z,99735.99
2019-04-07T17:01:32.482Z,99739.06
2019-04-07T17:04:02.859Z,99740.88
2019-04-07T17:06:36.113Z,99741.45
2019-04-07T17:09:08.901Z,99748.66
2019-04-07T17:11:40.572Z,99744.47
2019-04-07T17:14:09.270Z,99747.83
2019-04-07T17:16:42.194Z,99753.25
2019-04-07T17:19:09.933Z,99750.47
2019-04-07T17:21:41.142Z,99754.05
2019-04-07T17:24:11.074Z,99757.59
2019-04-07T17:26:41.469Z,99755.86
2019-04-07T17:29:11.180Z,99757.57
2019-04-07T17:31:41.165Z,99756.06
2019-04-07T17:34:13.059Z,99756.36
2019-04-07T17:36:41.787Z,99760.45
2019-04-07T17:39:15.615Z,99760.25
2019-04-07T17:41:49.177Z,99764.48
2019-04-07T17:44:24.661Z,99770.61
2019-04-07T17:47:13.588Z,99774.23
2019-04-07T17:50:01.034Z,99772.09
2019-04-07T17:52:44.218Z,99776.33
2019-04-07T17:55:18.744Z,99778.01
2019-04-07T17:57:49.685Z,99775.53
2019-04-07T18:00:37.405Z,99784.42
2019-04-07T18:03:11.879Z,99785.77
2019-04-07T18:06:00.439Z,99789.18
2019-04-07T18:08:48.593Z,99784.85
2019-04-07T18:11:20.161Z,99792.92
2019-04-07T18:13:53.809Z,99799.75
2019-04-07T18:16:40.763Z,99798.94
2019-04-07T18:19:27.122Z,99810.60
2019-04-07T18:22:06.179Z,99807.09
2019-04-07T18:24:50.946Z,99812.14
2019-04-07T18:27:25.348Z,99809.37
2019-04-07T18:29:59.544Z,99811.72
2019-04-07T18:32:43.017Z,99820.80
2019-04-07T18:35:16.576Z,99818.71
2019-04-07T18:38:04.396Z,99825.08
2019-04-07T18:40:52.552Z,99833.05
2019-04-07T18:43:26.705Z,99839.80
2019-04-07T18:46:05.124Z,99841.66
2019-04-07T18:48:53.245Z,99846.00
2019-04-07T18:51:41.347Z,99850.13
2019-04-07T18:54:12.297Z,99856.66
2019-04-07T18:57:01.565Z,99861.06
2019-04-07T18:59:33.222Z,99863.63
2019-04-07T19:02:11.887Z,99871.24
2019-04-07T19:04:39.508Z,99872.20
2019-04-07T19:07:10.919Z,99874.08
2019-04-07T19:09:42.403Z,99878.22
2019-04-07T19:12:30.387Z,99877.90
2019-04-07T19:15:08.795Z,99884.77
2019-04-07T19:17:46.083Z,99883.72
2019-04-07T19:20:34.127Z,99882.56
2019-04-07T19:23:07.781Z,99892.66
2019-04-07T19:25:51.184Z,99894.00
2019-04-07T19:28:38.330Z,99887.75
2019-04-07T19:31:27.079Z,99897.09
2019-04-07T19:33:59.850Z,99896.30
2019-04-07T19:36:42.799Z,99904.13
2019-04-07T19:39:23.511Z,99905.95
2019-04-07T19:41:51.574Z,99906.66
2019-04-07T19:44:37.191Z,99904.34
2019-04-07T19:47:19.304Z,99912.17
2019-04-07T19:49:56.223Z,99905.19
2019-04-07T19:52:39.799Z,99909.61
2019-04-07T19:55:10.818Z,99912.73
2019-04-07T19:57:42.731Z,99912.70
2019-04-07T20:00:28.000Z,99909.23
2019-04-07T20:02:59.544Z,99907.28
2019-04-07T20:05:49.625Z,99909.20
2019-04-07T20:08:22.913Z,99911.07
2019-04-07T20:10:54.912Z,99908.97
2019-04-07T20:13:42.461Z,99906.45
2019-04-07T20:16:30.560Z,99911.16
2019-04-07T20:19:04.739Z,99910.99
2019-04-07T20:21:40.121Z,99913.64
2019-04-07T20:24:08.863Z,99916.39
2019-04-07T20:26:42.844Z,99919.34
2019-04-07T20:29:13.759Z,99918.91
2019-04-07T20:31:45.038Z,99920.08
2019-04-07T20:34:16.654Z,99921.49
2019-04-07T20:36:51.661Z,99925.55
2019-04-07T20:39:32.593Z,99927.81
2019-04-07T20:42:01.989Z,99928.59
2019-04-07T20:44:34.427Z,99924.16
2019-04-07T20:47:15.484Z,99933.52
2019-04-07T20:49:55.441Z,99928.12
2019-04-07T20:52:29.865Z,99931.78
2019-04-07T20:55:03.782Z,99934.00
2019-04-07T20:57:36.435Z,99937.50
2019-04-07T21:00:15.007Z,99934.68
2019-04-07T21:03:13.919Z,99934.55
2019-04-07T21:05:42.892Z,99932.78
2019-04-07T21:08:31.930Z,99937.60
2019-04-07T21:11:04.615Z,99934.79
2019-04-07T21:13:52.475Z,99942.44
2019-04-07T21:16:32.635Z,99933.25
2019-04-07T21:19:06.787Z,99944.58
2019-04-07T21:21:41.671Z,99947.40
2019-04-07T21:24:27.879Z,99947.26
2019-04-07T21:27:07.995Z,99939.94
2019-04-07T21:29:43.447Z,99940.59
2019-04-07T21:32:24.869Z,99941.06
2019-04-07T21:35:12.967Z,99945.26
2019-04-07T21:38:02.548Z,99945.61
2019-04-07T21:40:45.885Z,99948.09
2019-04-07T21:43:27.843Z,99953.75
2019-04-07T21:46:15.400Z,99951.06
2019-04-07T21:49:00.703Z,99954.88
2019-04-07T21:51:48.211Z,99957.05
2019-04-07T21:54:38.678Z,99954.88
2019-04-07T21:57:08.303Z,99955.88
2019-04-07T21:59:42.216Z,99952.42
2019-04-07T22:02:29.639Z,99951.09
2019-04-07T22:05:07.337Z,99957.39
2019-04-07T22:07:44.970Z,99954.73
2019-04-07T22:10:18.737Z,99959.03
2019-04-07T22:12:47.765Z,99964.70
2019-04-07T22:15:17.681Z,99930.97
2019-04-07T22:17:47.853Z,99962.71
2019-04-07T22:20:18.957Z,99962.02
2019-04-07T22:22:49.337Z,99963.71
2019-04-07T22:25:22.709Z,99968.00
2019-04-07T22:27:54.495Z,99967.68
2019-04-07T22:30:24.246Z,99959.03
2019-04-07T22:32:54.172Z,99962.34
2019-04-07T22:35:24.600Z,99968.31
2019-04-07T22:37:54.744Z,99977.58
2019-04-07T22:40:24.461Z,99979.23
2019-04-07T22:42:54.148Z,99981.02
2019-04-07T22:45:27.918Z,99987.53
2019-04-07T22:47:55.163Z,99987.58
2019-04-07T22:50:25.302Z,99986.73
2019-04-07T22:52:55.377Z,99989.48
2019-04-07T22:55:25.639Z,99988.69
2019-04-07T22:57:55.778Z,99990.46
2019-04-07T23:00:26.906Z,99990.81
2019-04-07T23:02:56.619Z,99992.71
2019-04-07T23:05:26.275Z,99991.83
2019-04-07T23:07:56.416Z,99999.45
2019-04-07T23:10:25.987Z,99997.94
2019-04-07T23:12:55.357Z,99994.41
2019-04-07T23:15:37.265Z,99987.94
2019-04-07T23:17:55.923Z,99993.09
2019-04-07T23:20:25.272Z,99989.14
2019-04-07T23:22:54.533Z,99988.95
2019-04-07T23:25:23.864Z,99993.06
2019-04-07T23:27:54.235Z,99993.58
2019-04-07T23:30:26.175Z,99990.59
2019-04-07T23:32:55.719Z,99990.80
2019-04-07T23:35:25.679Z,99985.25
2019-04-07T23:37:55.571Z,99992.19
2019-04-07T23:40:25.844Z,99991.89
2019-04-07T23:42:55.654Z,99999.56
2019-04-07T23:45:25.304Z,99998.02
2019-04-07T23:47:55.493Z,99991.83
2019-04-07T23:50:25.285Z,99994.00
2019-04-07T23:52:56.009Z,99998.27
2019-04-07T23:55:25.749Z,99998.09
2019-04-07T23:57:55.087Z,99995.33
